createdAt,value
2023-02-11T00:01:10.587Z,36.95
2023-02-11T00:03:39.093Z,42.92
2023-02-11T00:06:11.423Z,49.22
2023-02-11T00:08:39.719Z,48.35
2023-02-11T00:11:07.181Z,42.38
2023-02-11T00:13:34.378Z,40.35
2023-02-11T00:16:07.638Z,38.78
2023-02-11T00:18:36.558Z,37.65
2023-02-11T00:21:08.807Z,35.88
2023-02-11T00:23:36.194Z,35.10
2023-02-11T00:26:04.037Z,37.33
2023-02-11T00:28:31.266Z,38.20
2023-02-11T00:30:59.375Z,63.90
2023-02-11T00:33:26.699Z,41.80
2023-02-11T00:35:53.938Z,39.90
2023-02-11T00:38:21.211Z,39.10
2023-02-11T00:40:48.658Z,44.50
2023-02-11T00:43:15.971Z,47.45
2023-02-11T00:45:43.129Z,47.03
2023-02-11T00:48:10.303Z,42.30
2023-02-11T00:50:37.500Z,35.55
2023-02-11T00:53:04.817Z,34.67
2023-02-11T00:55:32.037Z,36.05
2023-02-11T00:58:00.306Z,33.85
2023-02-11T01:00:28.130Z,33.53
2023-02-11T01:02:56.096Z,33.20
2023-02-11T01:05:25.115Z,34.65
2023-02-11T01:07:52.462Z,33.10
2023-02-11T01:10:19.759Z,33.08
2023-02-11T01:12:47.061Z,32.90
2023-02-11T01:15:20.000Z,32.20
2023-02-11T01:17:47.277Z,30.90
2023-02-11T01:20:17.779Z,32.67
2023-02-11T01:22:45.071Z,32.25
2023-02-11T01:25:13.190Z,32.85
2023-02-11T01:27:40.660Z,33.25
2023-02-11T01:30:10.386Z,33.35
2023-02-11T01:32:37.714Z,34.42
2023-02-11T01:35:05.675Z,34.00
2023-02-11T01:37:36.827Z,33.45
2023-02-11T01:40:07.144Z,33.42
2023-02-11T01:42:34.581Z,33.20
2023-02-11T01:45:39.625Z,33.40
2023-02-11T01:48:07.764Z,33.08
2023-02-11T01:50:35.985Z,33.75
2023-02-11T01:53:23.412Z,33.72
2023-02-11T01:56:11.254Z,32.53
2023-02-11T01:58:42.112Z,32.03
2023-02-11T02:01:11.503Z,32.60
2023-02-11T02:03:42.446Z,32.03
2023-02-11T02:06:23.054Z,31.63
2023-02-11T02:09:00.980Z,30.42
2023-02-11T02:11:31.110Z,29.65
2023-02-11T02:13:58.533Z,29.75
2023-02-11T02:16:32.935Z,31.27
2023-02-11T02:21:54.303Z,30.77
2023-02-11T02:24:52.335Z,30.98
2023-02-11T02:27:25.752Z,31.50
2023-02-11T02:29:59.026Z,22.98
2023-02-11T02:32:57.302Z,29.50
2023-02-11T02:35:46.695Z,27.75
2023-02-11T02:38:29.105Z,28.50
2023-02-11T02:41:08.694Z,28.50
2023-02-11T02:43:47.960Z,29.73
2023-02-11T02:46:18.326Z,25.80
2023-02-11T02:48:46.826Z,28.08
2023-02-11T02:51:35.860Z,27.88
2023-02-11T02:54:34.229Z,27.88
2023-02-11T02:57:18.781Z,24.88
2023-02-11T02:59:51.914Z,25.45
2023-02-11T03:02:31.659Z,25.75
2023-02-11T03:05:23.578Z,25.20
2023-02-11T03:08:03.076Z,25.75
2023-02-11T03:10:50.064Z,26.20
2023-02-11T03:13:20.443Z,27.13
2023-02-11T03:15:52.099Z,26.40
2023-02-11T03:18:23.143Z,26.77
2023-02-11T03:20:54.144Z,25.95
2023-02-11T03:23:50.945Z,25.33
2023-02-11T03:26:41.466Z,22.77
2023-02-11T03:29:23.537Z,24.75
2023-02-11T03:31:58.656Z,25.58
2023-02-11T03:34:30.313Z,26.40
2023-02-11T03:37:02.036Z,25.55
2023-02-11T03:39:38.309Z,25.70
2023-02-11T03:42:08.578Z,26.13
2023-02-11T03:44:41.592Z,25.23
2023-02-11T03:47:11.981Z,25.08
2023-02-11T03:49:40.675Z,25.45
2023-02-11T03:52:11.578Z,25.17
2023-02-11T03:54:42.910Z,26.05
2023-02-11T03:57:10.265Z,27.33
2023-02-11T03:59:57.301Z,25.67
2023-02-11T04:02:28.713Z,25.35
2023-02-11T04:04:56.016Z,26.85
2023-02-11T04:07:24.179Z,26.48
2023-02-11T04:09:51.793Z,26.52
2023-02-11T04:12:20.857Z,26.63
2023-02-11T04:14:48.146Z,26.17
2023-02-11T04:17:15.367Z,24.45
2023-02-11T04:19:42.544Z,25.75
2023-02-11T04:22:09.939Z,26.80
2023-02-11T04:24:37.206Z,25.83
2023-02-11T04:27:04.629Z,26.88
2023-02-11T04:29:32.419Z,23.38
2023-02-11T04:31:59.653Z,25.42
2023-02-11T04:34:26.940Z,25.33
2023-02-11T04:36:54.187Z,24.67
2023-02-11T04:39:21.418Z,23.13
2023-02-11T04:41:48.571Z,24.60
2023-02-11T04:44:16.076Z,23.13
2023-02-11T04:46:43.342Z,23.33
2023-02-11T04:49:14.421Z,22.63
2023-02-11T04:51:42.395Z,22.88
2023-02-11T04:54:11.662Z,22.95
2023-02-11T04:56:39.782Z,21.98
2023-02-11T04:59:07.704Z,23.27
2023-02-11T05:01:35.076Z,21.98
2023-02-11T05:04:02.369Z,20.95
2023-02-11T05:06:29.747Z,22.58
2023-02-11T05:08:56.981Z,22.20
2023-02-11T05:11:26.025Z,23.42
2023-02-11T05:13:53.271Z,23.08
2023-02-11T05:16:21.012Z,22.60
2023-02-11T05:18:50.234Z,23.98
2023-02-11T05:21:20.141Z,22.88
2023-02-11T05:23:47.539Z,23.90
2023-02-11T05:26:15.011Z,23.63
2023-02-11T05:28:42.740Z,24.83
2023-02-11T05:31:10.121Z,25.23
2023-02-11T05:33:37.696Z,25.95
2023-02-11T05:36:08.577Z,25.30
2023-02-11T05:38:35.858Z,25.35
2023-02-11T05:41:04.257Z,24.38
2023-02-11T05:43:31.459Z,22.42
2023-02-11T05:45:59.042Z,21.00
2023-02-11T05:48:26.269Z,21.67
2023-02-11T05:50:53.554Z,20.48
2023-02-11T05:53:20.760Z,20.48
2023-02-11T05:55:48.111Z,20.73
2023-02-11T05:58:15.555Z,18.58
2023-02-11T06:00:42.860Z,20.35
2023-02-11T06:03:10.053Z,20.48
2023-02-11T06:05:37.467Z,20.23
2023-02-11T06:08:04.939Z,19.05
2023-02-11T06:10:32.267Z,20.00
2023-02-11T06:13:02.187Z,20.02
2023-02-11T06:15:29.534Z,18.45
2023-02-11T06:17:57.177Z,20.08
2023-02-11T06:20:24.420Z,20.67
2023-02-11T06:22:51.660Z,20.58
2023-02-11T06:25:18.922Z,19.58
2023-02-11T06:27:46.103Z,19.08
2023-02-11T06:30:14.141Z,22.98
2023-02-11T06:32:44.872Z,20.58
2023-02-11T06:35:14.172Z,18.88
2023-02-11T06:37:42.154Z,19.00
2023-02-11T06:40:10.679Z,19.38
2023-02-11T06:42:39.514Z,19.52
2023-02-11T06:45:09.598Z,19.52
2023-02-11T06:47:37.269Z,20.48
2023-02-11T06:50:06.072Z,19.88
2023-02-11T06:52:34.021Z,21.08
2023-02-11T06:55:01.296Z,20.10
2023-02-11T06:57:28.586Z,20.20
2023-02-11T06:59:55.950Z,20.77
2023-02-11T07:02:23.140Z,21.80
2023-02-11T07:04:50.475Z,23.17
2023-02-11T07:07:17.826Z,21.77
2023-02-11T07:09:45.062Z,18.83
2023-02-11T07:12:12.385Z,19.42
2023-02-11T07:14:39.871Z,18.63
2023-02-11T07:17:07.469Z,18.83
2023-02-11T07:19:34.655Z,18.75
2023-02-11T07:22:01.800Z,17.80
2023-02-11T07:24:28.981Z,17.95
2023-02-11T07:26:56.141Z,18.77
2023-02-11T07:29:23.303Z,19.08
2023-02-11T07:31:50.759Z,19.73
2023-02-11T07:34:18.058Z,18.98
2023-02-11T07:36:45.398Z,19.08
2023-02-11T07:39:13.063Z,18.63
2023-02-11T07:41:40.260Z,19.08
2023-02-11T07:44:07.708Z,19.83
2023-02-11T07:46:36.182Z,20.05
2023-02-11T07:49:03.956Z,19.20
2023-02-11T07:51:31.907Z,18.92
2023-02-11T07:54:00.251Z,18.58
2023-02-11T07:56:28.991Z,18.48
2023-02-11T07:58:59.933Z,18.13
2023-02-11T08:01:28.944Z,16.75
2023-02-11T08:03:58.260Z,16.83
2023-02-11T08:06:27.674Z,16.13
2023-02-11T08:08:55.421Z,17.15
2023-02-11T08:11:25.111Z,18.17
2023-02-11T08:13:55.374Z,17.42
2023-02-11T08:16:35.038Z,17.23
2023-02-11T08:19:05.536Z,18.02
2023-02-11T08:21:32.774Z,17.75
2023-02-11T08:24:03.612Z,17.08
2023-02-11T08:26:33.098Z,18.52
2023-02-11T08:29:01.338Z,20.42
2023-02-11T08:31:33.819Z,19.27
2023-02-11T08:34:02.631Z,19.85
2023-02-11T08:36:34.407Z,17.77
2023-02-11T08:39:18.107Z,16.98
2023-02-11T08:41:49.080Z,16.33
2023-02-11T08:44:17.409Z,13.90
2023-02-11T08:46:44.654Z,13.75
2023-02-11T08:49:12.256Z,11.77
2023-02-11T08:51:39.391Z,13.05
2023-02-11T08:54:09.695Z,13.82
2023-02-11T08:56:38.413Z,16.83
2023-02-11T08:59:06.794Z,13.93
2023-02-11T09:01:34.386Z,14.50
2023-02-11T09:04:02.029Z,15.45
2023-02-11T09:06:29.863Z,15.88
2023-02-11T09:08:58.033Z,15.32
2023-02-11T09:11:31.962Z,16.65
2023-02-11T09:14:00.176Z,16.90
2023-02-11T09:16:30.026Z,14.43
2023-02-11T09:18:59.350Z,16.95
2023-02-11T09:21:26.717Z,14.77
2023-02-11T09:23:55.016Z,17.33
2023-02-11T09:26:33.777Z,17.63
2023-02-11T09:29:01.899Z,19.08
2023-02-11T09:31:31.700Z,16.98
2023-02-11T09:34:02.052Z,15.65
2023-02-11T09:36:35.059Z,15.48
2023-02-11T09:39:03.188Z,14.02
2023-02-11T09:42:31.977Z,14.25
2023-02-11T09:45:01.504Z,12.95
2023-02-11T09:47:33.294Z,12.82
2023-02-11T09:50:12.631Z,11.48
2023-02-11T09:53:00.251Z,12.15
2023-02-11T09:55:36.859Z,12.35
2023-02-11T09:58:16.422Z,13.23
2023-02-11T10:00:46.590Z,13.10
2023-02-11T10:03:35.138Z,11.40
2023-02-11T10:06:11.261Z,12.30
2023-02-11T10:09:07.037Z,12.18
2023-02-11T10:12:07.508Z,11.05
2023-02-11T10:14:59.743Z,11.80
2023-02-11T10:17:58.153Z,15.13
2023-02-11T10:20:33.937Z,11.40
2023-02-11T10:23:08.907Z,13.30
2023-02-11T10:25:45.227Z,12.45
2023-02-11T10:28:25.281Z,11.90
2023-02-11T10:31:02.970Z,11.43
2023-02-11T10:33:33.695Z,11.95
2023-02-11T10:36:01.346Z,15.68
2023-02-11T10:38:28.859Z,13.90
2023-02-11T10:40:56.021Z,34.97
2023-02-11T10:43:27.790Z,12.40
2023-02-11T10:45:57.256Z,9.77
2023-02-11T10:48:43.167Z,13.15
2023-02-11T10:51:18.583Z,13.02
2023-02-11T10:53:47.507Z,13.05
2023-02-11T10:56:28.043Z,10.43
2023-02-11T10:59:02.304Z,10.35
2023-02-11T11:01:45.882Z,8.93
2023-02-11T11:04:45.972Z,10.07
2023-02-11T11:07:16.064Z,9.65
2023-02-11T11:09:45.576Z,8.63
2023-02-11T11:12:29.302Z,9.48
2023-02-11T11:15:04.079Z,9.35
2023-02-11T11:17:31.413Z,10.13
2023-02-11T11:20:30.742Z,9.05
2023-02-11T11:23:16.547Z,9.23
2023-02-11T11:25:57.590Z,10.13
2023-02-11T11:28:28.594Z,9.40
2023-02-11T11:30:58.987Z,9.25
2023-02-11T11:33:35.917Z,9.48
2023-02-11T11:36:10.760Z,10.30
2023-02-11T11:38:45.935Z,9.63
2023-02-11T11:41:39.494Z,12.13
2023-02-11T11:44:30.007Z,9.73
2023-02-11T11:47:19.293Z,10.55
2023-02-11T11:49:52.165Z,9.82
2023-02-11T11:52:30.069Z,10.90
2023-02-11T11:55:19.700Z,12.23
2023-02-11T11:57:48.149Z,14.70
2023-02-11T12:00:30.918Z,10.77
2023-02-11T12:03:22.726Z,12.88
2023-02-11T12:06:12.039Z,13.00
2023-02-11T12:09:00.400Z,11.13
2023-02-11T12:11:36.534Z,10.73
2023-02-11T12:14:32.847Z,11.77
2023-02-11T12:17:31.845Z,12.27
2023-02-11T12:20:05.295Z,11.32
2023-02-11T12:22:57.395Z,12.15
2023-02-11T12:25:36.267Z,12.30
2023-02-11T12:28:13.008Z,10.40
2023-02-11T12:30:58.977Z,10.70
2023-02-11T12:33:38.616Z,11.63
2023-02-11T12:36:35.303Z,10.75
2023-02-11T12:39:23.855Z,11.10
2023-02-11T12:42:34.070Z,15.55
2023-02-11T12:45:12.999Z,13.20
2023-02-11T12:48:02.188Z,13.50
2023-02-11T12:50:50.777Z,11.77
2023-02-11T12:53:55.890Z,12.25
2023-02-11T12:56:23.313Z,10.65
2023-02-11T12:58:55.812Z,12.43
2023-02-11T13:01:29.938Z,12.65
2023-02-11T13:04:17.567Z,13.13
2023-02-11T13:07:00.138Z,11.80
2023-02-11T13:09:35.219Z,11.43
2023-02-11T13:12:25.781Z,11.13
2023-02-11T13:14:59.686Z,11.48
2023-02-11T13:17:37.443Z,11.50
2023-02-11T13:20:35.313Z,12.23
2023-02-11T13:23:14.074Z,10.85
2023-02-11T13:25:59.920Z,11.48
2023-02-11T13:28:45.584Z,11.65
2023-02-11T13:31:17.018Z,12.02
2023-02-11T13:33:46.256Z,11.63
2023-02-11T13:36:19.706Z,11.75
2023-02-11T13:39:20.438Z,12.32
2023-02-11T13:41:52.532Z,12.68
2023-02-11T13:44:25.425Z,11.82
2023-02-11T13:46:59.880Z,12.23
2023-02-11T13:49:36.053Z,12.07
2023-02-11T13:52:06.984Z,12.55
2023-02-11T13:54:38.893Z,12.48
2023-02-11T13:57:21.555Z,13.18
2023-02-11T13:59:57.523Z,12.90
2023-02-11T14:02:45.710Z,14.25
2023-02-11T14:05:37.181Z,13.57
2023-02-11T14:08:29.006Z,14.35
2023-02-11T14:11:09.164Z,15.05
2023-02-11T14:13:57.782Z,16.83
2023-02-11T14:16:37.600Z,14.18
2023-02-11T14:19:07.125Z,14.05
2023-02-11T14:21:38.431Z,15.07
2023-02-11T14:24:07.545Z,15.15
2023-02-11T14:26:59.454Z,14.57
2023-02-11T14:29:56.728Z,14.88
2023-02-11T14:32:30.434Z,14.50
2023-02-11T14:35:18.496Z,15.40
2023-02-11T14:37:50.679Z,14.38
2023-02-11T14:40:55.540Z,14.00
2023-02-11T14:43:31.579Z,15.73
2023-02-11T14:46:02.904Z,15.13
2023-02-11T14:48:38.313Z,17.65
2023-02-11T14:51:28.258Z,17.20
2023-02-11T14:54:02.166Z,16.95
2023-02-11T14:56:31.965Z,17.50
2023-02-11T14:59:00.736Z,18.38
2023-02-11T15:01:41.487Z,14.48
2023-02-11T15:04:32.035Z,16.45
2023-02-11T15:07:06.733Z,15.10
2023-02-11T15:12:02.514Z,13.75
2023-02-11T15:14:35.665Z,12.57
2023-02-11T15:17:10.205Z,13.32
2023-02-11T15:22:21.959Z,13.02
2023-02-11T15:25:15.150Z,13.48
2023-02-11T15:27:48.893Z,13.10
2023-02-11T15:30:22.461Z,16.67
2023-02-11T15:32:52.299Z,13.53
2023-02-11T15:35:20.372Z,15.98
2023-02-11T15:37:50.555Z,15.85
2023-02-11T15:40:28.117Z,16.67
2023-02-11T15:42:58.139Z,16.73
2023-02-11T15:45:37.366Z,15.55
2023-02-11T15:48:44.117Z,15.73
2023-02-11T15:51:30.244Z,13.18
2023-02-11T15:54:05.636Z,14.57
2023-02-11T15:56:44.148Z,13.30
2023-02-11T15:59:18.009Z,14.15
2023-02-11T16:01:46.772Z,13.45
2023-02-11T16:04:24.392Z,14.13
2023-02-11T16:06:53.676Z,13.02
2023-02-11T16:09:33.381Z,12.85
2023-02-11T16:12:22.940Z,11.80
2023-02-11T16:14:51.381Z,11.60
2023-02-11T16:17:30.789Z,12.18
2023-02-11T16:20:00.655Z,14.25
2023-02-11T16:22:37.090Z,17.17
2023-02-11T16:25:05.211Z,22.60
2023-02-11T16:27:38.943Z,27.85
2023-02-11T16:30:22.143Z,24.50
2023-02-11T16:32:51.049Z,23.95
2023-02-11T16:35:19.244Z,25.33
2023-02-11T16:37:48.324Z,29.02
2023-02-11T16:40:16.641Z,34.65
2023-02-11T16:42:44.603Z,39.58
2023-02-11T16:45:13.586Z,20.67
2023-02-11T16:47:43.602Z,19.60
2023-02-11T16:50:19.983Z,17.15
2023-02-11T16:52:48.571Z,15.48
2023-02-11T16:55:16.599Z,15.05
2023-02-11T16:57:45.286Z,17.63
2023-02-11T17:00:17.238Z,16.35
2023-02-11T17:02:45.175Z,17.25
2023-02-11T17:05:23.547Z,18.83
2023-02-11T17:07:51.585Z,18.52
2023-02-11T17:10:24.666Z,23.75
2023-02-11T17:12:54.138Z,20.63
2023-02-11T17:15:21.573Z,20.30
2023-02-11T17:17:49.370Z,22.73
2023-02-11T17:20:17.313Z,19.10
2023-02-11T17:22:45.276Z,17.80
2023-02-11T17:25:14.215Z,21.02
2023-02-11T17:27:42.321Z,24.08
2023-02-11T17:30:11.728Z,21.73
2023-02-11T17:32:39.326Z,20.05
2023-02-11T17:35:08.226Z,22.77
2023-02-11T17:37:36.379Z,30.23
2023-02-11T17:40:04.333Z,27.35
2023-02-11T17:42:32.329Z,29.13
2023-02-11T17:45:00.246Z,28.30
2023-02-11T17:47:28.308Z,23.73
2023-02-11T17:49:56.629Z,20.58
2023-02-11T17:52:25.509Z,19.70
2023-02-11T17:54:53.511Z,15.88
2023-02-11T17:57:23.234Z,15.65
2023-02-11T17:59:51.307Z,15.93
2023-02-11T18:02:20.153Z,15.48
2023-02-11T18:04:48.422Z,16.35
2023-02-11T18:07:16.485Z,16.00
2023-02-11T18:09:44.320Z,16.95
2023-02-11T18:12:12.625Z,18.17
2023-02-11T18:14:41.889Z,18.77
2023-02-11T18:17:11.250Z,23.98
2023-02-11T18:19:39.521Z,26.45
2023-02-11T18:22:07.560Z,25.25
2023-02-11T18:24:35.734Z,22.23
2023-02-11T18:27:03.986Z,22.52
2023-02-11T18:29:32.072Z,23.10
2023-02-11T18:32:00.296Z,21.33
2023-02-11T18:34:31.476Z,21.85
2023-02-11T18:36:59.558Z,20.85
2023-02-11T18:39:27.630Z,20.33
2023-02-11T18:41:57.555Z,22.13
2023-02-11T18:44:29.063Z,19.02
2023-02-11T18:46:57.138Z,20.92
2023-02-11T18:49:25.100Z,20.02
2023-02-11T18:51:55.615Z,21.58
2023-02-11T18:54:23.815Z,20.38
2023-02-11T18:56:52.767Z,23.58
2023-02-11T18:59:22.699Z,21.73
2023-02-11T19:01:52.128Z,22.23
2023-02-11T19:04:21.041Z,20.63
2023-02-11T19:06:50.913Z,19.42
2023-02-11T19:09:22.158Z,19.40
2023-02-11T19:11:54.865Z,18.10
2023-02-11T19:14:27.919Z,17.02
2023-02-11T19:16:58.394Z,16.90
2023-02-11T19:19:30.355Z,15.95
2023-02-11T19:21:59.797Z,15.98
2023-02-11T19:24:29.163Z,17.25
2023-02-11T19:26:59.908Z,17.38
2023-02-11T19:29:28.721Z,17.10
2023-02-11T19:31:57.384Z,18.65
2023-02-11T19:34:26.883Z,17.65
2023-02-11T19:36:56.318Z,16.02
2023-02-11T19:39:26.929Z,14.05
2023-02-11T19:41:55.353Z,13.95
2023-02-11T19:44:23.712Z,14.52
2023-02-11T19:46:54.055Z,13.77
2023-02-11T19:49:25.183Z,12.07
2023-02-11T19:52:00.546Z,11.52
2023-02-11T19:54:32.456Z,12.45
2023-02-11T19:57:00.433Z,13.23
2023-02-11T19:59:28.518Z,13.00
2023-02-11T20:01:56.832Z,12.80
2023-02-11T20:04:25.908Z,10.57
2023-02-11T20:06:54.442Z,12.60
2023-02-11T20:09:23.588Z,13.75
2023-02-11T20:11:52.216Z,12.77
2023-02-11T20:14:20.202Z,12.02
2023-02-11T20:16:49.936Z,11.80
2023-02-11T20:19:22.479Z,11.13
2023-02-11T20:21:56.455Z,10.68
2023-02-11T20:24:25.905Z,10.95
2023-02-11T20:27:00.714Z,11.40
2023-02-11T20:29:31.858Z,12.27
2023-02-11T20:32:01.593Z,12.13
2023-02-11T20:34:30.426Z,13.48
2023-02-11T20:36:58.764Z,12.32
2023-02-11T20:39:27.140Z,11.77
2023-02-11T20:41:57.295Z,11.88
2023-02-11T20:44:26.013Z,10.30
2023-02-11T20:46:54.901Z,11.10
2023-02-11T20:49:26.368Z,11.75
2023-02-11T20:51:54.510Z,11.57
2023-02-11T20:54:23.754Z,10.73
2023-02-11T20:56:54.295Z,10.45
2023-02-11T20:59:22.883Z,11.80
2023-02-11T21:01:56.682Z,11.02
2023-02-11T21:04:31.962Z,12.88
2023-02-11T21:07:02.189Z,10.80
2023-02-11T21:09:35.271Z,12.50
2023-02-11T21:12:03.414Z,11.35
2023-02-11T21:14:32.582Z,10.65
2023-02-11T21:17:00.625Z,10.45
2023-02-11T21:19:28.791Z,10.70
2023-02-11T21:22:01.313Z,10.30
2023-02-11T21:24:36.895Z,10.10
2023-02-11T21:27:05.110Z,9.50
2023-02-11T21:29:36.681Z,9.43
2023-02-11T21:32:10.272Z,10.43
2023-02-11T21:34:38.262Z,11.48
2023-02-11T21:37:06.288Z,9.82
2023-02-11T21:39:34.260Z,10.75
2023-02-11T21:42:02.353Z,10.15
2023-02-11T21:44:32.763Z,10.85
2023-02-11T21:47:00.797Z,10.88
2023-02-11T21:49:29.864Z,10.45
2023-02-11T21:51:57.626Z,11.20
2023-02-11T21:54:29.732Z,10.95
2023-02-11T21:56:57.817Z,11.32
2023-02-11T21:59:25.776Z,11.10
2023-02-11T22:01:53.442Z,11.80
2023-02-11T22:04:21.522Z,11.95
2023-02-11T22:06:49.437Z,12.07
2023-02-11T22:09:17.134Z,11.93
2023-02-11T22:11:44.279Z,12.30
2023-02-11T22:14:12.041Z,12.60
2023-02-11T22:16:39.304Z,12.25
2023-02-11T22:19:08.581Z,12.25
2023-02-11T22:21:36.030Z,12.10
2023-02-11T22:24:03.513Z,12.48
2023-02-11T22:26:30.844Z,12.68
2023-02-11T22:28:58.266Z,13.73
2023-02-11T22:31:31.493Z,12.07
2023-02-11T22:34:00.241Z,12.63
2023-02-11T22:36:30.234Z,11.77
2023-02-11T22:39:02.149Z,13.20
2023-02-11T22:41:30.162Z,12.23
2023-02-11T22:43:57.419Z,13.13
2023-02-11T22:46:24.642Z,13.07
2023-02-11T22:48:52.171Z,13.60
2023-02-11T22:51:27.215Z,13.35
2023-02-11T22:53:57.471Z,13.00
2023-02-11T22:56:25.744Z,12.18
2023-02-11T22:58:54.064Z,13.63
2023-02-11T23:01:21.287Z,14.10
2023-02-11T23:03:48.916Z,14.13
2023-02-11T23:06:16.253Z,12.75
2023-02-11T23:08:44.264Z,12.88
2023-02-11T23:11:18.193Z,12.40
2023-02-11T23:13:46.744Z,12.13
2023-02-11T23:16:17.562Z,12.95
2023-02-11T23:18:47.190Z,12.00
2023-02-11T23:21:23.291Z,12.48
2023-02-11T23:23:57.934Z,12.07
2023-02-11T23:28:52.699Z,12.00
2023-02-11T23:31:25.936Z,11.52
2023-02-11T23:33:53.558Z,12.57
2023-02-11T23:36:22.145Z,12.15
2023-02-11T23:38:49.584Z,14.52
2023-02-11T23:41:17.409Z,12.32
2023-02-11T23:43:48.480Z,12.90
2023-02-11T23:46:15.716Z,11.90
2023-02-11T23:48:42.960Z,11.88
2023-02-11T23:51:10.197Z,11.73
2023-02-11T23:53:38.420Z,12.23
2023-02-11T23:56:17.030Z,12.38
2023-02-11T23:58:45.115Z,13.55
